createdAt,value
2023-04-28T00:01:11.946Z,94.60
2023-04-28T00:03:39.117Z,94.90
2023-04-28T00:06:07.626Z,94.90
2023-04-28T00:08:34.610Z,94.90
2023-04-28T00:11:02.484Z,95.20
2023-04-28T00:13:31.878Z,95.40
2023-04-28T00:16:00.935Z,95.90
2023-04-28T00:18:31.412Z,95.90
2023-04-28T00:21:08.489Z,96.40
2023-04-28T00:23:38.894Z,96.60
2023-04-28T00:26:06.710Z,96.70
2023-04-28T00:28:34.735Z,96.90
2023-04-28T00:31:02.310Z,97.20
2023-04-28T00:33:29.047Z,97.40
2023-04-28T00:36:01.797Z,97.70
2023-04-28T00:38:28.848Z,98.30
2023-04-28T00:40:55.981Z,98.30
2023-04-28T00:43:22.701Z,98.60
2023-04-28T00:45:50.566Z,99.20
2023-04-28T00:48:17.576Z,99.50
2023-04-28T00:50:45.165Z,99.60
2023-04-28T00:53:13.029Z,99.90
2023-04-28T00:55:40.250Z,99.90
2023-04-28T00:58:07.500Z,99.90
2023-04-28T01:00:34.806Z,99.90
2023-04-28T01:03:01.973Z,99.90
2023-04-28T01:05:29.724Z,99.90
2023-04-28T01:07:56.448Z,99.90
2023-04-28T01:10:23.272Z,99.90
2023-04-28T01:12:51.207Z,99.90
2023-04-28T01:15:19.775Z,99.90
2023-04-28T01:17:53.297Z,99.90
2023-04-28T01:20:21.204Z,99.90
2023-04-28T01:22:47.885Z,99.90
2023-04-28T01:25:14.757Z,99.90
2023-04-28T01:27:41.426Z,99.90
2023-04-28T01:30:08.773Z,99.90
2023-04-28T01:32:35.501Z,99.90
2023-04-28T01:35:02.230Z,99.90
2023-04-28T01:37:28.870Z,99.90
2023-04-28T01:39:55.539Z,99.90
2023-04-28T01:42:22.150Z,99.90
2023-04-28T01:44:50.105Z,99.90
2023-04-28T01:47:20.026Z,99.90
2023-04-28T01:49:47.329Z,99.90
2023-04-28T01:52:15.173Z,99.90
2023-04-28T01:54:41.851Z,99.90
2023-04-28T01:57:09.799Z,99.90
2023-04-28T01:59:36.687Z,99.90
2023-04-28T02:02:04.772Z,99.90
2023-04-28T02:04:31.513Z,99.90
2023-04-28T02:07:01.771Z,99.90
2023-04-28T02:09:31.478Z,99.90
2023-04-28T02:11:58.322Z,99.90
2023-04-28T02:14:25.367Z,99.90
2023-04-28T02:16:52.120Z,99.90
2023-04-28T02:19:18.805Z,99.90
2023-04-28T02:21:45.519Z,99.90
2023-04-28T02:24:12.192Z,99.90
2023-04-28T02:26:38.828Z,99.90
2023-04-28T02:29:05.500Z,99.90
2023-04-28T02:31:32.283Z,99.90
2023-04-28T02:34:00.143Z,99.90
2023-04-28T02:36:29.778Z,99.90
2023-04-28T02:38:59.868Z,99.90
2023-04-28T02:41:28.101Z,99.90
2023-04-28T02:43:54.760Z,99.90
2023-04-28T02:46:21.496Z,99.90
2023-04-28T02:48:48.246Z,99.90
2023-04-28T02:51:14.904Z,99.90
2023-04-28T02:53:41.591Z,99.90
2023-04-28T02:56:08.305Z,99.90
2023-04-28T02:58:35.003Z,99.90
2023-04-28T03:01:01.806Z,99.90
2023-04-28T03:03:28.790Z,99.90
2023-04-28T03:05:55.556Z,99.90
2023-04-28T03:08:22.597Z,99.90
2023-04-28T03:10:49.558Z,99.90
2023-04-28T03:13:17.241Z,99.90
2023-04-28T03:15:45.257Z,99.90
2023-04-28T03:18:11.995Z,99.90
2023-04-28T03:20:39.657Z,99.90
2023-04-28T03:23:08.400Z,99.90
2023-04-28T03:25:35.020Z,99.90
2023-04-28T03:28:01.924Z,99.90
2023-04-28T03:30:28.642Z,99.90
2023-04-28T03:32:55.370Z,99.90
2023-04-28T03:35:22.100Z,99.90
2023-04-28T03:37:49.113Z,99.90
2023-04-28T03:40:15.998Z,99.90
2023-04-28T03:42:43.995Z,99.90
2023-04-28T03:45:11.078Z,99.90
2023-04-28T03:47:38.904Z,99.90
2023-04-28T03:50:06.120Z,99.90
2023-04-28T03:52:34.543Z,99.90
2023-04-28T03:55:01.225Z,99.90
2023-04-28T03:57:27.921Z,99.90
2023-04-28T03:59:54.649Z,99.90
2023-04-28T04:02:21.429Z,99.90
2023-04-28T04:04:48.290Z,99.90
2023-04-28T04:07:15.086Z,99.90
2023-04-28T04:09:41.800Z,99.90
2023-04-28T04:12:08.460Z,99.90
2023-04-28T04:14:35.179Z,99.90
2023-04-28T04:17:01.896Z,99.90
2023-04-28T04:19:28.577Z,99.90
2023-04-28T04:21:57.344Z,99.90
2023-04-28T04:24:25.133Z,99.90
2023-04-28T04:26:53.025Z,99.90
2023-04-28T04:29:19.723Z,99.90
2023-04-28T04:31:46.472Z,99.90
2023-04-28T04:34:13.434Z,99.90
2023-04-28T04:36:40.204Z,99.90
2023-04-28T04:39:08.088Z,99.90
2023-04-28T04:41:34.792Z,99.90
2023-04-28T04:44:01.516Z,99.90
2023-04-28T04:46:28.288Z,99.90
2023-04-28T04:48:55.006Z,99.90
2023-04-28T04:51:21.745Z,99.90
2023-04-28T04:53:48.452Z,99.90
2023-04-28T04:56:16.767Z,99.90
2023-04-28T04:58:46.102Z,99.90
2023-04-28T05:01:12.760Z,99.90
2023-04-28T05:03:39.517Z,99.90
2023-04-28T05:06:06.413Z,99.90
2023-04-28T05:08:33.091Z,99.90
2023-04-28T05:10:59.751Z,99.90
2023-04-28T05:13:26.447Z,99.90
2023-04-28T05:15:53.077Z,99.90
2023-04-28T05:18:19.781Z,99.90
2023-04-28T05:20:47.653Z,99.90
2023-04-28T05:23:14.434Z,99.90
2023-04-28T05:25:41.208Z,99.90
2023-04-28T05:28:12.213Z,99.90
2023-04-28T05:30:40.029Z,99.90
2023-04-28T05:33:07.938Z,99.90
2023-04-28T05:35:35.942Z,99.90
2023-04-28T05:38:11.942Z,99.90
2023-04-28T05:40:42.241Z,99.90
2023-04-28T05:43:10.111Z,99.90
2023-04-28T05:45:36.854Z,99.90
2023-04-28T05:48:03.767Z,99.90
2023-04-28T05:50:30.454Z,99.90
2023-04-28T05:52:57.165Z,99.90
2023-04-28T05:55:23.907Z,99.90
2023-04-28T05:57:53.454Z,99.90
2023-04-28T06:00:20.848Z,99.90
2023-04-28T06:02:47.771Z,99.90
2023-04-28T06:05:14.866Z,99.90
2023-04-28T06:07:41.678Z,99.90
2023-04-28T06:10:09.020Z,99.90
2023-04-28T06:12:35.820Z,99.90
2023-04-28T06:15:02.650Z,99.90
2023-04-28T06:17:29.359Z,99.90
2023-04-28T06:19:56.074Z,99.90
2023-04-28T06:22:23.998Z,99.90
2023-04-28T06:24:50.706Z,99.90
2023-04-28T06:27:20.546Z,99.90
2023-04-28T06:29:50.633Z,99.90
2023-04-28T06:32:23.131Z,99.90
2023-04-28T06:34:51.339Z,99.90
2023-04-28T06:37:19.316Z,99.90
2023-04-28T06:39:47.250Z,99.90
2023-04-28T06:42:14.824Z,99.90
2023-04-28T06:44:44.154Z,99.90
2023-04-28T06:47:11.080Z,99.90
2023-04-28T06:49:37.897Z,99.90
2023-04-28T06:52:04.664Z,99.90
2023-04-28T06:54:31.391Z,99.90
2023-04-28T06:56:58.138Z,99.90
2023-04-28T06:59:24.873Z,99.90
2023-04-28T07:01:51.615Z,99.90
2023-04-28T07:04:19.177Z,99.90
2023-04-28T07:06:47.945Z,99.90
2023-04-28T07:09:14.794Z,99.90
2023-04-28T07:11:43.804Z,99.90
2023-04-28T07:14:11.968Z,99.90
2023-04-28T07:16:39.276Z,99.90
2023-04-28T07:19:18.681Z,99.60
2023-04-28T07:21:46.941Z,98.10
2023-04-28T07:24:17.428Z,97.60
2023-04-28T07:26:46.199Z,97.30
2023-04-28T07:29:15.581Z,95.90
2023-04-28T07:31:42.280Z,96.20
2023-04-28T07:34:09.103Z,96.10
2023-04-28T07:36:35.861Z,95.80
2023-04-28T07:39:02.745Z,95.30
2023-04-28T07:42:03.061Z,95.20
2023-04-28T07:44:32.283Z,94.90
2023-04-28T07:47:11.890Z,95.00
2023-04-28T07:49:39.845Z,95.00
2023-04-28T07:52:10.770Z,94.50
2023-04-28T07:54:37.700Z,94.60
2023-04-28T07:57:04.482Z,94.40
2023-04-28T07:59:31.375Z,94.20
2023-04-28T08:01:58.076Z,94.10
2023-04-28T08:04:25.390Z,93.90
2023-04-28T08:06:55.042Z,93.80
2023-04-28T08:09:21.853Z,93.70
2023-04-28T08:11:48.596Z,93.50
2023-04-28T08:14:16.953Z,93.30
2023-04-28T08:16:45.467Z,93.40
2023-04-28T08:19:13.238Z,93.20
2023-04-28T08:21:41.109Z,93.00
2023-04-28T08:24:07.777Z,92.90
2023-04-28T08:26:40.119Z,92.40
2023-04-28T08:29:09.943Z,92.40
2023-04-28T08:31:39.592Z,91.90
2023-04-28T08:34:09.823Z,91.50
2023-04-28T08:36:39.488Z,91.50
2023-04-28T08:39:06.182Z,91.30
2023-04-28T08:41:33.088Z,91.10
2023-04-28T08:43:59.916Z,90.60
2023-04-28T08:46:28.794Z,90.60
2023-04-28T08:49:00.697Z,90.50
2023-04-28T08:51:35.335Z,90.30
2023-04-28T08:54:22.824Z,89.40
2023-04-28T08:56:53.407Z,88.40
2023-04-28T08:59:24.522Z,87.60
2023-04-28T09:01:53.919Z,86.40
2023-04-28T09:04:23.213Z,85.70
2023-04-28T09:06:50.426Z,85.60
2023-04-28T09:09:20.044Z,85.70
2023-04-28T09:11:55.699Z,85.30
2023-04-28T09:14:23.440Z,83.90
2023-04-28T09:16:50.803Z,84.20
2023-04-28T09:19:17.722Z,83.70
2023-04-28T09:21:54.396Z,83.60
2023-04-28T09:24:35.726Z,81.50
2023-04-28T09:27:04.761Z,81.30
2023-04-28T09:29:32.103Z,82.10
2023-04-28T09:32:15.156Z,81.80
2023-04-28T09:34:50.194Z,81.50
2023-04-28T09:37:22.546Z,81.80
2023-04-28T09:39:54.241Z,81.50
2023-04-28T09:42:44.543Z,81.30
2023-04-28T09:45:18.231Z,80.90
2023-04-28T09:47:46.981Z,80.10
2023-04-28T09:50:16.915Z,79.70
2023-04-28T09:52:46.051Z,79.20
2023-04-28T09:55:13.200Z,79.70
2023-04-28T09:57:40.351Z,79.40
2023-04-28T10:00:08.140Z,78.80
2023-04-28T10:05:08.201Z,78.60
2023-04-28T10:07:38.459Z,78.40
2023-04-28T10:10:06.950Z,78.30
2023-04-28T10:12:33.724Z,77.90
2023-04-28T10:15:00.872Z,77.00
2023-04-28T10:17:27.771Z,77.20
2023-04-28T10:19:55.080Z,76.20
2023-04-28T10:23:05.474Z,75.90
2023-04-28T10:25:34.826Z,75.40
2023-04-28T10:28:06.167Z,76.10
2023-04-28T10:30:32.938Z,75.60
2023-04-28T10:33:09.001Z,75.20
2023-04-28T10:35:35.702Z,74.40
2023-04-28T10:38:06.949Z,74.90
2023-04-28T10:40:43.359Z,74.50
2023-04-28T10:43:12.007Z,74.70
2023-04-28T10:45:56.812Z,74.10
2023-04-28T10:48:50.353Z,73.90
2023-04-28T10:51:21.600Z,72.90
2023-04-28T10:53:48.224Z,73.30
2023-04-28T10:56:28.934Z,73.30
2023-04-28T10:59:01.681Z,72.50
2023-04-28T11:01:32.525Z,72.80
2023-04-28T11:04:10.400Z,72.90
2023-04-28T11:06:43.336Z,71.60
2023-04-28T11:09:12.889Z,71.50
2023-04-28T11:11:58.271Z,71.10
2023-04-28T11:14:33.658Z,70.60
2023-04-28T11:17:08.270Z,70.00
2023-04-28T11:19:37.080Z,69.70
2023-04-28T11:22:18.974Z,69.30
2023-04-28T11:25:02.430Z,69.30
2023-04-28T11:27:30.853Z,69.00
2023-04-28T11:29:57.616Z,68.40
2023-04-28T11:32:35.172Z,67.80
2023-04-28T11:35:02.201Z,66.80
2023-04-28T11:37:28.938Z,67.30
2023-04-28T11:39:55.657Z,67.20
2023-04-28T11:42:22.447Z,66.40
2023-04-28T11:44:53.544Z,66.40
2023-04-28T11:47:31.109Z,66.00
2023-04-28T11:49:57.796Z,65.60
2023-04-28T11:52:24.527Z,65.90
2023-04-28T11:54:55.568Z,64.90
2023-04-28T11:57:22.525Z,64.60
2023-04-28T11:59:51.195Z,64.70
2023-04-28T12:02:25.999Z,64.00
2023-04-28T12:04:52.817Z,64.20
2023-04-28T12:07:19.965Z,64.20
2023-04-28T12:10:10.533Z,64.00
2023-04-28T12:15:08.680Z,64.10
2023-04-28T12:17:39.525Z,64.20
2023-04-28T12:20:09.601Z,63.80
2023-04-28T12:22:50.867Z,63.50
2023-04-28T12:25:19.429Z,63.10
2023-04-28T12:28:05.996Z,63.00
2023-04-28T12:30:37.151Z,61.80
2023-04-28T12:33:04.073Z,62.50
2023-04-28T12:35:30.830Z,62.10
2023-04-28T12:37:57.967Z,62.10
2023-04-28T12:40:24.958Z,61.60
2023-04-28T12:42:52.847Z,61.40
2023-04-28T12:45:22.526Z,61.00
2023-04-28T12:47:50.774Z,60.70
2023-04-28T12:50:17.868Z,60.90
2023-04-28T12:52:44.512Z,61.10
2023-04-28T12:55:11.270Z,61.10
2023-04-28T12:57:39.507Z,61.20
2023-04-28T13:00:07.853Z,61.20
2023-04-28T13:02:35.680Z,60.80
2023-04-28T13:05:03.171Z,60.70
2023-04-28T13:07:30.294Z,61.10
2023-04-28T13:09:57.350Z,60.80
2023-04-28T13:12:24.073Z,61.00
2023-04-28T13:14:50.778Z,61.20
2023-04-28T13:17:18.640Z,61.60
2023-04-28T13:19:46.394Z,61.00
2023-04-28T13:22:16.229Z,61.60
2023-04-28T13:24:55.334Z,62.20
2023-04-28T13:27:23.586Z,62.10
2023-04-28T13:29:53.070Z,62.10
2023-04-28T13:32:20.168Z,62.60
2023-04-28T13:34:47.149Z,62.60
2023-04-28T13:37:14.082Z,62.60
2023-04-28T13:39:40.781Z,62.50
2023-04-28T13:42:07.479Z,62.40
2023-04-28T13:44:34.249Z,62.50
2023-04-28T13:47:00.983Z,62.70
2023-04-28T13:49:27.668Z,63.60
2023-04-28T13:51:54.465Z,64.40
2023-04-28T13:54:21.289Z,66.30
2023-04-28T13:56:48.048Z,67.40
2023-04-28T13:59:14.742Z,68.60
2023-04-28T14:01:41.471Z,69.00
2023-04-28T14:04:08.335Z,68.20
2023-04-28T14:06:35.246Z,71.20
2023-04-28T14:09:01.977Z,73.00
2023-04-28T14:11:28.686Z,74.40
2023-04-28T14:13:58.203Z,74.50
2023-04-28T14:16:24.982Z,75.90
2023-04-28T14:18:51.886Z,74.50
2023-04-28T14:21:19.652Z,74.10
2023-04-28T14:23:46.344Z,74.10
2023-04-28T14:26:13.333Z,74.20
2023-04-28T14:28:41.163Z,74.80
2023-04-28T14:31:07.893Z,75.60
2023-04-28T14:33:36.525Z,75.20
2023-04-28T14:36:03.454Z,76.10
2023-04-28T14:38:30.236Z,76.50
2023-04-28T14:40:57.158Z,77.00
2023-04-28T14:43:24.062Z,77.60
2023-04-28T14:45:50.974Z,77.20
2023-04-28T14:48:17.844Z,76.70
2023-04-28T14:50:44.586Z,76.30
2023-04-28T14:53:11.264Z,76.50
2023-04-28T14:55:37.995Z,76.30
2023-04-28T14:58:04.666Z,76.30
2023-04-28T15:00:31.461Z,76.20
2023-04-28T15:02:58.365Z,76.10
2023-04-28T15:05:26.283Z,76.30
2023-04-28T15:07:52.992Z,76.30
2023-04-28T15:10:30.021Z,76.50
2023-04-28T15:12:58.159Z,76.20
2023-04-28T15:15:28.921Z,76.40
2023-04-28T15:17:55.692Z,76.50
2023-04-28T15:20:22.446Z,76.80
2023-04-28T15:22:49.227Z,76.50
2023-04-28T15:25:16.000Z,76.30
2023-04-28T15:27:42.763Z,76.30
2023-04-28T15:30:10.100Z,75.90
2023-04-28T15:32:37.162Z,75.90
2023-04-28T15:35:06.926Z,76.10
2023-04-28T15:37:47.056Z,76.80
2023-04-28T15:40:18.836Z,76.70
2023-04-28T15:42:47.332Z,77.30
2023-04-28T15:45:14.195Z,77.50
2023-04-28T15:47:44.298Z,76.90
2023-04-28T15:50:13.138Z,76.90
2023-04-28T15:52:43.904Z,77.20
2023-04-28T15:55:19.701Z,78.10
2023-04-28T15:57:48.703Z,77.80
2023-04-28T16:00:16.747Z,77.70
2023-04-28T16:02:44.474Z,78.30
2023-04-28T16:05:13.725Z,78.10
2023-04-28T16:07:40.594Z,78.10
2023-04-28T16:10:09.507Z,78.60
2023-04-28T16:12:36.624Z,79.40
2023-04-28T16:15:03.532Z,83.00
2023-04-28T16:17:30.389Z,85.50
2023-04-28T16:19:57.433Z,86.70
2023-04-28T16:22:25.887Z,88.00
2023-04-28T16:24:52.577Z,89.00
2023-04-28T16:27:19.271Z,89.50
2023-04-28T16:29:46.058Z,90.30
2023-04-28T16:32:13.154Z,91.00
2023-04-28T16:34:42.274Z,91.20
2023-04-28T16:37:09.006Z,91.70
2023-04-28T16:39:35.717Z,91.80
2023-04-28T16:42:02.440Z,92.10
2023-04-28T16:44:29.500Z,92.50
2023-04-28T16:46:56.846Z,92.60
2023-04-28T16:49:23.617Z,93.10
2023-04-28T16:52:04.151Z,93.90
2023-04-28T16:54:31.972Z,94.50
2023-04-28T16:57:00.132Z,95.60
2023-04-28T16:59:27.018Z,96.20
2023-04-28T17:01:58.777Z,96.60
2023-04-28T17:04:26.415Z,96.50
2023-04-28T17:06:54.016Z,96.90
2023-04-28T17:09:21.593Z,97.10
2023-04-28T17:11:49.595Z,97.70
2023-04-28T17:14:16.334Z,97.90
2023-04-28T17:16:43.266Z,98.40
2023-04-28T17:19:11.159Z,98.50
2023-04-28T17:21:38.499Z,98.90
2023-04-28T17:24:05.464Z,99.60
2023-04-28T17:26:32.157Z,99.60
2023-04-28T17:29:00.330Z,99.90
2023-04-28T17:31:29.085Z,99.90
2023-04-28T17:34:07.052Z,99.90
2023-04-28T17:36:34.825Z,99.90
2023-04-28T17:39:03.202Z,99.90
2023-04-28T17:41:29.934Z,99.90
2023-04-28T17:43:56.613Z,99.90
2023-04-28T17:46:23.355Z,99.90
2023-04-28T17:48:50.078Z,99.90
2023-04-28T17:51:16.814Z,99.90
2023-04-28T17:53:43.509Z,99.90
2023-04-28T17:56:10.200Z,99.90
2023-04-28T17:58:36.985Z,99.90
2023-04-28T18:01:05.476Z,99.90
2023-04-28T18:03:34.791Z,99.90
2023-04-28T18:06:01.606Z,99.90
2023-04-28T18:08:28.254Z,99.90
2023-04-28T18:10:54.954Z,99.90
2023-04-28T18:13:21.672Z,99.90
2023-04-28T18:15:49.865Z,99.90
2023-04-28T18:18:18.356Z,99.90
2023-04-28T18:20:45.468Z,99.90
2023-04-28T18:23:13.316Z,99.90
2023-04-28T18:25:40.286Z,99.90
2023-04-28T18:28:10.683Z,99.90
2023-04-28T18:30:46.678Z,99.90
2023-04-28T18:33:14.455Z,99.90
2023-04-28T18:35:41.625Z,99.90
2023-04-28T18:38:11.847Z,99.90
2023-04-28T18:40:43.432Z,99.90
2023-04-28T18:43:19.414Z,99.90
2023-04-28T18:45:50.388Z,99.90
2023-04-28T18:48:19.675Z,99.90
2023-04-28T18:50:46.958Z,99.90
2023-04-28T18:53:26.116Z,99.90
2023-04-28T18:55:57.331Z,99.90
2023-04-28T18:58:24.717Z,99.90
2023-04-28T19:00:52.846Z,99.90
2023-04-28T19:03:20.415Z,99.90
2023-04-28T19:05:47.816Z,99.90
2023-04-28T19:08:14.575Z,99.90
2023-04-28T19:10:41.279Z,99.90
2023-04-28T19:13:08.249Z,99.90
2023-04-28T19:15:34.968Z,99.90
2023-04-28T19:18:01.951Z,99.90
2023-04-28T19:20:29.085Z,99.90
2023-04-28T19:22:55.874Z,99.90
2023-04-28T19:25:22.559Z,99.90
2023-04-28T19:27:49.295Z,99.90
2023-04-28T19:30:16.033Z,99.90
2023-04-28T19:32:42.818Z,99.90
2023-04-28T19:35:09.822Z,99.90
2023-04-28T19:37:36.786Z,99.90
2023-04-28T19:40:04.070Z,99.90
2023-04-28T19:42:31.020Z,99.90
2023-04-28T19:44:58.551Z,99.90
2023-04-28T19:47:26.563Z,99.90
2023-04-28T19:49:53.838Z,99.90
2023-04-28T19:52:22.150Z,99.90
2023-04-28T19:54:50.692Z,99.90
2023-04-28T19:57:18.547Z,99.90
2023-04-28T19:59:49.952Z,99.90
2023-04-28T20:02:21.617Z,99.90
2023-04-28T20:04:52.075Z,99.90
2023-04-28T20:07:21.025Z,99.90
2023-04-28T20:09:47.697Z,99.90
2023-04-28T20:12:15.264Z,99.90
2023-04-28T20:14:41.987Z,99.90
2023-04-28T20:17:09.172Z,99.90
2023-04-28T20:19:35.951Z,99.90
2023-04-28T20:22:04.879Z,99.90
2023-04-28T20:24:33.483Z,99.90
2023-04-28T20:27:00.817Z,99.90
2023-04-28T20:29:27.926Z,99.90
2023-04-28T20:31:54.593Z,99.90
2023-04-28T20:34:21.282Z,99.90
2023-04-28T20:36:47.956Z,99.90
2023-04-28T20:39:14.640Z,99.90
2023-04-28T20:41:41.330Z,99.90
2023-04-28T20:44:08.308Z,99.90
2023-04-28T20:46:35.248Z,99.90
2023-04-28T20:49:03.341Z,99.90
2023-04-28T20:51:30.259Z,99.90
2023-04-28T20:53:56.962Z,99.90
2023-04-28T20:56:23.967Z,99.90
2023-04-28T20:58:50.639Z,99.90
2023-04-28T21:01:17.354Z,99.90
2023-04-28T21:03:45.404Z,99.90
2023-04-28T21:06:12.210Z,99.90
2023-04-28T21:08:42.184Z,99.90
2023-04-28T21:11:19.928Z,99.90
2023-04-28T21:13:50.292Z,99.90
2023-04-28T21:16:21.168Z,99.90
2023-04-28T21:18:52.577Z,99.90
2023-04-28T21:21:23.176Z,99.90
2023-04-28T21:23:52.186Z,99.90
2023-04-28T21:26:19.243Z,99.90
2023-04-28T21:28:46.186Z,99.90
2023-04-28T21:31:12.980Z,99.90
2023-04-28T21:33:39.761Z,99.90
2023-04-28T21:36:07.289Z,99.90
2023-04-28T21:38:34.451Z,99.90
2023-04-28T21:41:01.148Z,99.90
2023-04-28T21:43:27.916Z,99.90
2023-04-28T21:45:54.732Z,99.90
2023-04-28T21:48:21.499Z,99.90
2023-04-28T21:50:48.217Z,99.90
2023-04-28T21:53:15.026Z,99.90
2023-04-28T21:55:44.308Z,99.90
2023-04-28T21:58:13.366Z,99.90
2023-04-28T22:00:46.660Z,99.90
2023-04-28T22:03:18.018Z,99.90
2023-04-28T22:05:54.047Z,99.90
2023-04-28T22:08:20.812Z,99.90
2023-04-28T22:10:47.484Z,99.90
2023-04-28T22:13:14.418Z,99.90
2023-04-28T22:15:41.130Z,99.90
2023-04-28T22:18:07.893Z,99.90
2023-04-28T22:20:34.703Z,99.90
2023-04-28T22:23:01.599Z,99.90
2023-04-28T22:25:28.333Z,99.90
2023-04-28T22:27:55.073Z,99.90
2023-04-28T22:30:23.669Z,99.90
2023-04-28T22:32:51.789Z,99.90
2023-04-28T22:35:19.909Z,99.90
2023-04-28T22:37:46.644Z,99.90
2023-04-28T22:40:14.483Z,99.90
2023-04-28T22:42:42.170Z,99.90
2023-04-28T22:45:11.060Z,99.90
2023-04-28T22:47:40.061Z,99.90
2023-04-28T22:50:09.764Z,99.90
2023-04-28T22:52:38.716Z,99.90
2023-04-28T22:55:14.624Z,99.90
2023-04-28T22:57:42.928Z,99.90
2023-04-28T23:00:12.174Z,99.90
2023-04-28T23:02:39.033Z,99.90
2023-04-28T23:05:06.176Z,99.90
2023-04-28T23:07:32.839Z,99.90
2023-04-28T23:09:59.525Z,99.90
2023-04-28T23:12:26.275Z,99.90
2023-04-28T23:14:52.958Z,99.90
2023-04-28T23:17:19.670Z,99.90
2023-04-28T23:19:46.361Z,99.90
2023-04-28T23:22:13.165Z,99.90
2023-04-28T23:24:39.839Z,99.90
2023-04-28T23:27:06.625Z,99.90
2023-04-28T23:29:33.480Z,99.90
2023-04-28T23:32:01.269Z,99.90
2023-04-28T23:34:32.218Z,99.90
2023-04-28T23:37:03.444Z,99.90
2023-04-28T23:39:31.663Z,99.90
2023-04-28T23:42:00.662Z,99.90
2023-04-28T23:44:27.338Z,99.90
2023-04-28T23:46:56.005Z,99.90
2023-04-28T23:49:22.902Z,99.90
2023-04-28T23:51:49.652Z,99.90
2023-04-28T23:54:16.353Z,99.90
2023-04-28T23:56:43.107Z,99.90
2023-04-28T23:59:09.835Z,99.90
